Terminal Aerodrome Forecast
Issued by NWS Bismarck, ND

Home | Current Version | Previous Version | Graphics & Text | Print | Product List | Glossary On
Versions: 1 2 3 4 5 6 7 8 9 10 11 12 13 14 15 16 17 18 19 20 21 22
000
FTUS43 KBIS 210530
TAFBIS
TAF
KBIS 210530Z 2106/2206 21015G21KT P6SM FEW250 WS020/22040KT
     FM210800 29027G37KT P6SM FEW250 WS020/29040KT
     FM211200 29015G23KT P6SM VCSH BKN150 WS020/29035KT
     FM211700 28018G26KT P6SM VCSH BKN100
     FM220000 28012KT P6SM SCT090 WS020/29030KT
     FM220400 27007KT P6SM FEW200 WS020/29040KT=

USA.gov is the U.S. government's official web portal to all federal, state and local government web resources and services.